Portada
METAR-TAF:

METAR-TAF

Aeroports :

Bangkok, Tailàndia

latitud: 13-54-45N, longitud: 100-36-24E, altitud: 4 m

Observació

L'informe es va fer fa 28 minuts, a les 08:30 UTC
Vent 10 kt del Sud
Temperatura 37°C
Humitat 40%
Pressió 1006 hPa
Visibilitat 10 km o més
Escasses núvols a una alçada de 3000 ft

METAR: VTBD 010830Z 19010KT 9999 FEW030 37/21 Q1006 NOSIG

Hora: 15:58 (08:58 UTC)

Pronòstic

L'informe es va fer fa 3 hores i 58 minuts, a les 05:00 UTC
Pronòstic vàlid del 01 a les 06 UTC al 02 a les 12 UTC
Vent 10 kt del Sud/Sud-Oest
Visibilitat 10 km o més
Escasses núvols a una alçada de 2000 ft
Evolucionant progressivament
l' 01 a les 19 UTC al 01 a les 21 UTC
Vent 5 kt del Sud-Est
Evolucionant progressivament
l' 02 a les 01 UTC al 02 a les 03 UTC
Vent 10 kt del Sud/Sud-Oest

TAF: VTBD 010500Z 0106/0212 20010KT 9999 FEW020 BECMG 0119/0121 14005KT BECMG 0201/0203 20010KT

Observacions i pronòstics meteorològics de més de 4000 aeroports (METAR i TAF).

Les estacions disponibles són els punts grocs i vermells al mapa.

Posi el ratolí al punt desitjat per veure el nom de l'estació.

Feu clic per veure les observacions i els pronòstics meteorològics.

Per canviar el mapa: feu clic els botons verds amb una creu de color negre per apropar; al botó verd amb un guió per allunyar la imatge; o en les fletxes verdes per a mapes adjacents.


METAR-TAF: